Time;durP1;ratioP1;P1;durP2;ratioP2;P2;SDS_P1;SDS_P2;PMS_P1;PMS_P2;Temp;Humidity;BMP_temperature;BMP_pressure;BME280_temperature;BME280_humidity;BME280_pressure;Samples;Min_cycle;Max_cycle;Signal;HPM_P1;HPM_P2
2022/02/22 00:10:41;;;;;;;3.8;7.4;;;;;;;3;62.8;97310;;;;
2022/02/22 00:21:41;;;;;;;3.8;7.4;;;;;;;3.3;62.7;97320;;;;
2022/02/22 00:31:41;;;;;;;3.8;7.4;;;;;;;3.4;62.8;97330;;;;
2022/02/22 00:41:41;;;;;;;2.7;5.2;;;;;;;3.5;62.6;97330;;;;
2022/02/22 00:52:41;;;;;;;2.7;5.2;;;;;;;3.6;62.7;97340;;;;
2022/02/22 01:02:41;;;;;;;2.7;5.2;;;;;;;3.8;62.4;97350;;;;
2022/02/22 01:13:42;;;;;;;2;3.9;;;;;;;4.2;62.1;97360;;;;
2022/02/22 01:23:41;;;;;;;2;3.9;;;;;;;4.6;61;97370;;;;
2022/02/22 01:34:41;;;;;;;2.6;5.5;;;;;;;4.7;60.8;97370;;;;
2022/02/22 01:44:41;;;;;;;2.6;5.5;;;;;;;4.8;60.8;97380;;;;
2022/02/22 01:54:41;;;;;;;2.6;5.5;;;;;;;4.9;60.7;97390;;;;
2022/02/22 02:04:41;;;;;;;2.8;6.1;;;;;;;4.9;61.1;97410;;;;
2022/02/22 02:14:41;;;;;;;2.8;6.1;;;;;;;4.9;61.4;97420;;;;
2022/02/22 02:25:41;;;;;;;2.8;6.1;;;;;;;4.9;61.7;97440;;;;
2022/02/22 02:36:43;;;;;;;3;6.9;;;;;;;4.9;61.9;97460;;;;
2022/02/22 02:46:41;;;;;;;3;6.9;;;;;;;4.9;62;97480;;;;
2022/02/22 02:56:41;;;;;;;3;6.9;;;;;;;5;62.4;97500;;;;
2022/02/22 03:07:41;;;;;;;2.7;4.7;;;;;;;5.1;62.9;97520;;;;
2022/02/22 03:17:41;;;;;;;2.7;4.7;;;;;;;5.3;64;97550;;;;
2022/02/22 03:28:41;;;;;;;2.7;4.7;;;;;;;5.3;64.8;97570;;;;
2022/02/22 03:39:41;;;;;;;3.4;9.3;;;;;;;5.2;66;97580;;;;
2022/02/22 03:50:41;;;;;;;3.4;9.3;;;;;;;5;68.5;97610;;;;
2022/02/22 04:01:41;;;;;;;3.4;9.3;;;;;;;4.8;69.4;97640;;;;
2022/02/22 04:11:41;;;;;;;2.8;5.5;;;;;;;4.6;70;97660;;;;
2022/02/22 04:22:41;;;;;;;2.8;5.5;;;;;;;4.5;69.8;97680;;;;
2022/02/22 04:32:41;;;;;;;2.8;5.5;;;;;;;4.4;69.7;97710;;;;
2022/02/22 04:42:42;;;;;;;2.7;5.6;;;;;;;4.4;70.5;97730;;;;
2022/02/22 04:53:41;;;;;;;2.7;5.6;;;;;;;4.3;72.6;97740;;;;
2022/02/22 05:04:42;;;;;;;3.9;6.9;;;;;;;4.2;73.7;97780;;;;
2022/02/22 05:14:41;;;;;;;3.9;6.9;;;;;;;4;73.7;97810;;;;
2022/02/22 05:24:41;;;;;;;3.9;6.9;;;;;;;3.9;73;97840;;;;
2022/02/22 05:34:41;;;;;;;5.3;8.9;;;;;;;3.6;72.2;97850;;;;
2022/02/22 05:45:41;;;;;;;5.3;8.9;;;;;;;3.3;72.4;97880;;;;
2022/02/22 05:56:41;;;;;;;5.3;8.9;;;;;;;3;73;97890;;;;
2022/02/22 06:06:41;;;;;;;3.7;6.6;;;;;;;2.8;74.1;97910;;;;
2022/02/22 06:17:41;;;;;;;3.7;6.6;;;;;;;2.8;74.8;97920;;;;
2022/02/22 06:28:41;;;;;;;3.7;6.6;;;;;;;3;73.8;97950;;;;
2022/02/22 06:38:41;;;;;;;5.3;8.1;;;;;;;3.2;73;97960;;;;
2022/02/22 06:49:41;;;;;;;5.3;8.1;;;;;;;3.5;72.5;97980;;;;
2022/02/22 07:00:43;;;;;;;5.3;8.1;;;;;;;3.7;71.3;97980;;;;
2022/02/22 07:10:42;;;;;;;4.6;8.5;;;;;;;4;69.9;98000;;;;
2022/02/22 07:21:41;;;;;;;4.6;8.5;;;;;;;4.3;69.5;98000;;;;
2022/02/22 07:32:41;;;;;;;4.6;8.5;;;;;;;4.6;68;98010;;;;
2022/02/22 07:42:41;;;;;;;4.4;10.1;;;;;;;4.9;67;98030;;;;
2022/02/22 07:53:41;;;;;;;4.4;10.1;;;;;;;5.1;66;98050;;;;
2022/02/22 08:04:41;;;;;;;3.8;9.7;;;;;;;5.1;65.8;98080;;;;
2022/02/22 08:14:41;;;;;;;3.8;9.7;;;;;;;5.1;66.4;98100;;;;
2022/02/22 08:24:41;;;;;;;3.8;9.7;;;;;;;5.1;66.7;98100;;;;
2022/02/22 08:34:41;;;;;;;3.8;8.8;;;;;;;5.4;66.1;98120;;;;
2022/02/22 08:44:41;;;;;;;3.8;8.8;;;;;;;5.9;64.9;98130;;;;
2022/02/22 08:55:41;;;;;;;3.8;8.8;;;;;;;5.8;64.4;98140;;;;
2022/02/22 09:05:41;;;;;;;4;7.9;;;;;;;5.7;65.9;98140;;;;
2022/02/22 09:16:41;;;;;;;4;7.9;;;;;;;6.2;65.7;98150;;;;
2022/02/22 09:26:41;;;;;;;4;7.9;;;;;;;6.1;66.1;98150;;;;
2022/02/22 09:36:42;;;;;;;3.8;7.9;;;;;;;6.8;64.6;98150;;;;
2022/02/22 09:47:41;;;;;;;3.8;7.9;;;;;;;6.5;64.5;98160;;;;
2022/02/22 09:57:41;;;;;;;3.8;7.9;;;;;;;6.6;66;98180;;;;
2022/02/22 10:08:41;;;;;;;4.3;8.1;;;;;;;6.5;65.1;98170;;;;
2022/02/22 10:18:41;;;;;;;4.3;8.1;;;;;;;6.4;65.3;98190;;;;
2022/02/22 10:29:41;;;;;;;4.3;8.1;;;;;;;6.7;63.2;98190;;;;
2022/02/22 10:39:42;;;;;;;5.4;8.3;;;;;;;6.9;62.5;98200;;;;
2022/02/22 10:49:41;;;;;;;5.4;8.3;;;;;;;6.8;62.2;98210;;;;
2022/02/22 11:00:42;;;;;;;5.4;8.3;;;;;;;6.9;62.8;98220;;;;
2022/02/22 11:11:42;;;;;;;3.6;7.5;;;;;;;7.2;60.6;98220;;;;
2022/02/22 11:22:41;;;;;;;3.6;7.5;;;;;;;7.7;59.4;98220;;;;
2022/02/22 11:33:42;;;;;;;3.9;7.4;;;;;;;7.5;59.1;98240;;;;
2022/02/22 11:44:42;;;;;;;3.9;7.4;;;;;;;6.9;62.6;98250;;;;
2022/02/22 11:55:41;;;;;;;3.9;7.4;;;;;;;6.9;64.7;98270;;;;
2022/02/22 12:06:41;;;;;;;3.1;6.2;;;;;;;6.8;65.5;98270;;;;
2022/02/22 12:17:43;;;;;;;3.1;6.2;;;;;;;6.9;65;98270;;;;
2022/02/22 12:27:41;;;;;;;3.1;6.2;;;;;;;7.4;62.6;98280;;;;
2022/02/22 12:38:42;;;;;;;3.5;6.6;;;;;;;7.8;62;98280;;;;
2022/02/22 12:49:42;;;;;;;3.5;6.6;;;;;;;6.2;70.7;98350;;;;
2022/02/22 12:59:42;;;;;;;3.5;6.6;;;;;;;4.8;78.2;98360;;;;
2022/02/22 13:10:42;;;;;;;3.8;6.4;;;;;;;4.9;79.7;98360;;;;
2022/02/22 13:21:42;;;;;;;3.8;6.4;;;;;;;5.2;79.4;98350;;;;
2022/02/22 13:31:41;;;;;;;3.8;6.4;;;;;;;5.3;78.1;98370;;;;
2022/02/22 13:41:42;;;;;;;5.3;7.6;;;;;;;5;76.1;98400;;;;
2022/02/22 13:51:42;;;;;;;5.3;7.6;;;;;;;5.1;75.8;98410;;;;
2022/02/22 14:02:42;;;;;;;7.3;16.9;;;;;;;5.2;74.7;98420;;;;
2022/02/22 14:12:42;;;;;;;7.3;16.9;;;;;;;5.3;74.1;98430;;;;
2022/02/22 14:23:41;;;;;;;7.3;16.9;;;;;;;5.3;75.2;98450;;;;
2022/02/22 14:33:42;;;;;;;7.7;12.4;;;;;;;5.3;74.5;98460;;;;
2022/02/22 14:43:42;;;;;;;7.7;12.4;;;;;;;5.4;72.6;98470;;;;
2022/02/22 14:54:42;;;;;;;7.7;12.4;;;;;;;5.2;73;98490;;;;
2022/02/22 15:05:43;;;;;;;9.7;14.5;;;;;;;5.1;73;98500;;;;
2022/02/22 15:15:42;;;;;;;9.7;14.5;;;;;;;5.1;72.1;98510;;;;
2022/02/22 15:25:42;;;;;;;9.7;14.5;;;;;;;5;71.7;98510;;;;
2022/02/22 15:35:42;;;;;;;9.7;14.8;;;;;;;4.9;71;98510;;;;
2022/02/22 15:45:43;;;;;;;9.7;14.8;;;;;;;4.8;70.5;98520;;;;
2022/02/22 15:56:42;;;;;;;9.7;14.8;;;;;;;4.7;69.5;98530;;;;
2022/02/22 16:06:42;;;;;;;10.5;15.7;;;;;;;4.4;69;98550;;;;
2022/02/22 16:17:42;;;;;;;10.5;15.7;;;;;;;4.1;68.9;98550;;;;
2022/02/22 16:28:42;;;;;;;10.5;15.7;;;;;;;3.9;69.3;98570;;;;
2022/02/22 16:38:42;;;;;;;11.4;16.8;;;;;;;3.6;70.2;98580;;;;
2022/02/22 16:48:42;;;;;;;11.4;16.8;;;;;;;3.5;70.6;98590;;;;
2022/02/22 16:58:42;;;;;;;11.4;16.8;;;;;;;3.5;70.2;98590;;;;
2022/02/22 17:09:42;;;;;;;12.8;19.5;;;;;;;3.7;68.7;98610;;;;
2022/02/22 17:19:42;;;;;;;12.8;19.5;;;;;;;3.8;66.3;98620;;;;
2022/02/22 17:30:42;;;;;;;12.8;19.5;;;;;;;3.9;66;98630;;;;
2022/02/22 17:40:42;;;;;;;12.1;21.4;;;;;;;4;64.3;98640;;;;
2022/02/22 17:51:42;;;;;;;12.1;21.4;;;;;;;4;64.2;98650;;;;
2022/02/22 18:01:45;;;;;;;10;17;;;;;;;4;63.8;98650;;;;
2022/02/22 18:12:42;;;;;;;10;17;;;;;;;4;64.2;98660;;;;
2022/02/22 18:22:42;;;;;;;10;17;;;;;;;3.8;64.8;98660;;;;
2022/02/22 18:32:42;;;;;;;10.1;17.8;;;;;;;3.7;66;98680;;;;
2022/02/22 18:42:42;;;;;;;10.1;17.8;;;;;;;3.6;67.1;98680;;;;
2022/02/22 18:53:42;;;;;;;10.1;17.8;;;;;;;3.5;68.2;98690;;;;
2022/02/22 19:03:42;;;;;;;9.4;15.4;;;;;;;3.4;68.4;98690;;;;
2022/02/22 19:13:42;;;;;;;9.4;15.4;;;;;;;3.4;68.6;98690;;;;
2022/02/22 19:23:42;;;;;;;9.4;15.4;;;;;;;3.2;69.7;98700;;;;
2022/02/22 19:34:42;;;;;;;10.5;18.9;;;;;;;3.1;69.7;98710;;;;
2022/02/22 19:44:42;;;;;;;10.5;18.9;;;;;;;2.9;69.7;98710;;;;
2022/02/22 19:54:43;;;;;;;10.5;18.9;;;;;;;3;69.7;98720;;;;
2022/02/22 20:05:42;;;;;;;12;16.4;;;;;;;3.1;69.2;98710;;;;
2022/02/22 20:15:43;;;;;;;12;16.4;;;;;;;3.1;69.5;98720;;;;
2022/02/22 20:26:42;;;;;;;12;16.4;;;;;;;3.2;69;98720;;;;
2022/02/22 20:37:42;;;;;;;16;26.5;;;;;;;3.2;69.1;98720;;;;
2022/02/22 20:48:42;;;;;;;16;26.5;;;;;;;3.3;68.8;98710;;;;
2022/02/22 20:59:42;;;;;;;16;26.5;;;;;;;3.3;68.6;98710;;;;
2022/02/22 21:09:42;;;;;;;11.4;20.6;;;;;;;3.2;69;98710;;;;
2022/02/22 21:20:42;;;;;;;11.4;20.6;;;;;;;3.2;68.9;98700;;;;
2022/02/22 21:30:42;;;;;;;11.4;20.6;;;;;;;3.2;69.4;98710;;;;
2022/02/22 21:41:42;;;;;;;13;18.7;;;;;;;3.3;69;98720;;;;
2022/02/22 21:52:45;;;;;;;13;18.7;;;;;;;3.3;69;98710;;;;
2022/02/22 22:03:42;;;;;;;13.7;22.1;;;;;;;3.3;69.4;98720;;;;
2022/02/22 22:14:42;;;;;;;13.7;22.1;;;;;;;3.3;69.7;98720;;;;
2022/02/22 22:24:42;;;;;;;13.7;22.1;;;;;;;3.3;69.4;98730;;;;
2022/02/22 22:34:42;;;;;;;12;18.6;;;;;;;3.3;68.8;98720;;;;
2022/02/22 22:44:42;;;;;;;12;18.6;;;;;;;3.1;69.1;98720;;;;
2022/02/22 22:54:42;;;;;;;12;18.6;;;;;;;2.8;69.4;98720;;;;
2022/02/22 23:15:42;;;;;;;12.2;18.8;;;;;;;2.4;69.7;98710;;;;
2022/02/22 23:25:42;;;;;;;12.2;18.8;;;;;;;2.4;69.4;98710;;;;
2022/02/22 23:36:42;;;;;;;10.3;17.1;;;;;;;2.5;68.9;98700;;;;
2022/02/22 23:46:42;;;;;;;10.3;17.1;;;;;;;2.6;68.5;98680;;;;
2022/02/22 23:57:42;;;;;;;10.3;17.1;;;;;;;2.7;67.5;98660;;;;
